Macamic, Canada
Current Conditions -  °F | °C
As of 7:00 PM on Monday 22 Dec 2014 (Local Time) from CYUY Reporting Station
Light Snow Light Snow  
Wind Chill: 15°   Ceiling: 700
Heat Index: 23°   Visibility: 15mi
Dew Point: 21°   Wind: 7mph
Humidity: 93%   Direction: 160°SSE
Pressure: 30.15"   Gusts: NA
Location:  48.77°N, 79°W
Report Text: CYUY 230000Z 16006KT 15SM -SN BKN007 OVC018 M05/M06 A3015 RMK SF5SC3 SLP229
Loading
Personal Weather Stations






























Interactive Weather Map New forecast layout! Learn more

10-Day Weather Forecast

Advertisements
Track Severe Weather on mobile